Terminal Aerodrome Forecast
Issued by NWS

Home | Current Version | Previous Version | Text Only | Print | Product List | Glossary On
Versions: 1 2 3 4 5 6 7 8 9 10 11 12
000
FTUS42 KMLB 301733
TAFTIX
TAF
KTIX 301733Z 3018/3118 08010KT P6SM SCT040 SCT250
     FM310100 17003KT P6SM FEW030 SCT250
     FM311400 18004KT P6SM FEW035
     FM311700 12008KT P6SM SCT040=

USA.gov is the U.S. government's official web portal to all federal, state and local government web resources and services.